createdAt,value
2019-03-30T00:00:43.969Z,12.97
2019-03-30T00:03:14.874Z,12.03
2019-03-30T00:05:45.830Z,12.73
2019-03-30T00:08:16.735Z,13.57
2019-03-30T00:10:47.739Z,13.03
2019-03-30T00:13:18.703Z,12.97
2019-03-30T00:15:49.565Z,13.13
2019-03-30T00:18:20.457Z,13.73
2019-03-30T00:20:51.444Z,14.00
2019-03-30T00:23:22.352Z,13.77
2019-03-30T00:25:53.227Z,13.30
2019-03-30T00:28:24.142Z,13.40
2019-03-30T00:30:55.028Z,13.30
2019-03-30T00:33:25.931Z,13.20
2019-03-30T00:35:56.896Z,13.57
2019-03-30T00:38:27.844Z,13.73
2019-03-30T00:40:58.718Z,13.67
2019-03-30T00:43:29.615Z,13.93
2019-03-30T00:46:00.564Z,13.77
2019-03-30T00:48:31.469Z,12.63
2019-03-30T00:51:02.347Z,13.20
2019-03-30T00:53:33.287Z,13.30
2019-03-30T00:56:04.162Z,13.07
2019-03-30T00:58:35.111Z,13.83
2019-03-30T01:01:06.013Z,14.00
2019-03-30T01:03:36.908Z,14.47
2019-03-30T01:06:07.809Z,13.10
2019-03-30T01:08:38.715Z,13.13
2019-03-30T01:11:09.596Z,13.27
2019-03-30T01:13:40.568Z,13.53
2019-03-30T01:16:11.435Z,12.93
2019-03-30T01:18:42.363Z,14.73
2019-03-30T01:21:13.241Z,13.57
2019-03-30T01:23:44.198Z,15.87
2019-03-30T01:26:15.064Z,14.70
2019-03-30T01:28:46.016Z,14.67
2019-03-30T01:31:16.904Z,13.93
2019-03-30T01:33:47.805Z,14.40
2019-03-30T01:36:18.769Z,14.03
2019-03-30T01:38:50.759Z,13.60
2019-03-30T01:41:21.661Z,13.07
2019-03-30T01:43:52.566Z,13.63
2019-03-30T01:46:23.446Z,12.90
2019-03-30T01:48:54.375Z,12.87
2019-03-30T01:51:25.247Z,12.77
2019-03-30T01:53:56.214Z,12.57
2019-03-30T01:56:27.107Z,13.33
2019-03-30T01:58:58.044Z,12.73
2019-03-30T02:01:29.015Z,12.87
2019-03-30T02:03:59.937Z,12.43
2019-03-30T02:06:31.664Z,13.32
2019-03-30T02:09:02.576Z,13.40
2019-03-30T02:11:33.990Z,12.73
2019-03-30T02:14:04.991Z,12.77
2019-03-30T02:16:36.110Z,12.80
2019-03-30T02:19:07.200Z,13.33
2019-03-30T02:21:38.197Z,11.90
2019-03-30T02:24:09.138Z,12.20
2019-03-30T02:26:40.379Z,12.33
2019-03-30T02:29:11.417Z,11.87
2019-03-30T02:31:42.371Z,12.30
2019-03-30T02:34:15.186Z,12.03
2019-03-30T02:36:46.252Z,13.00
2019-03-30T02:39:17.592Z,12.40
2019-03-30T02:41:48.699Z,12.53
2019-03-30T02:44:19.797Z,12.87
2019-03-30T02:46:50.933Z,13.40
2019-03-30T02:49:21.907Z,12.70
2019-03-30T02:51:53.039Z,13.47
2019-03-30T02:54:24.011Z,13.53
2019-03-30T02:56:55.107Z,12.77
2019-03-30T02:59:26.088Z,13.20
2019-03-30T03:01:57.176Z,13.57
2019-03-30T03:04:28.184Z,12.57
2019-03-30T03:06:59.115Z,12.00
2019-03-30T03:09:30.041Z,12.67
2019-03-30T03:12:00.992Z,12.30
2019-03-30T03:14:32.119Z,12.55
2019-03-30T03:17:03.068Z,12.17
2019-03-30T03:19:34.009Z,12.80
2019-03-30T03:22:04.906Z,12.50
2019-03-30T03:24:35.819Z,12.53
2019-03-30T03:27:06.809Z,13.07
2019-03-30T03:29:37.842Z,13.33
2019-03-30T03:32:08.737Z,13.07
2019-03-30T03:34:39.649Z,13.63
2019-03-30T03:37:10.536Z,13.13
2019-03-30T03:39:41.453Z,13.70
2019-03-30T03:42:12.321Z,15.60
2019-03-30T03:44:43.217Z,14.10
2019-03-30T03:47:14.092Z,14.03
2019-03-30T03:49:45.019Z,13.87
2019-03-30T03:52:16.601Z,14.13
2019-03-30T03:54:47.579Z,14.50
2019-03-30T03:57:21.746Z,14.30
2019-03-30T03:59:53.657Z,14.60
2019-03-30T04:02:25.890Z,15.30
2019-03-30T04:04:58.426Z,15.13
2019-03-30T04:07:32.298Z,14.70
2019-03-30T04:10:05.567Z,15.50
2019-03-30T04:12:39.488Z,14.23
2019-03-30T04:15:12.262Z,16.00
2019-03-30T04:17:43.201Z,15.50
2019-03-30T04:20:17.039Z,15.63
2019-03-30T04:22:47.940Z,15.20
2019-03-30T04:25:18.931Z,15.60
2019-03-30T04:27:49.828Z,15.03
2019-03-30T04:30:20.871Z,15.17
2019-03-30T04:32:51.737Z,15.20
2019-03-30T04:35:22.623Z,15.43
2019-03-30T04:37:53.508Z,15.40
2019-03-30T04:40:24.415Z,14.70
2019-03-30T04:42:55.290Z,14.20
2019-03-30T04:45:26.205Z,14.47
2019-03-30T04:47:57.153Z,14.37
2019-03-30T04:50:28.123Z,14.03
2019-03-30T04:52:58.986Z,13.83
2019-03-30T04:55:29.946Z,14.20
2019-03-30T04:58:00.818Z,15.03
2019-03-30T05:00:32.431Z,15.70
2019-03-30T05:03:03.377Z,16.77
2019-03-30T05:05:34.312Z,17.13
2019-03-30T05:08:05.187Z,17.03
2019-03-30T05:10:37.105Z,16.57
2019-03-30T05:13:08.036Z,14.13
2019-03-30T05:15:39.054Z,14.63
2019-03-30T05:18:10.013Z,14.67
2019-03-30T05:20:41.034Z,14.50
2019-03-30T05:23:12.067Z,15.50
2019-03-30T05:25:43.199Z,15.50
2019-03-30T05:28:14.095Z,14.75
2019-03-30T05:30:45.177Z,15.40
2019-03-30T05:33:16.227Z,15.08
2019-03-30T05:35:47.136Z,15.20
2019-03-30T05:38:18.136Z,13.73
2019-03-30T05:40:49.279Z,14.53
2019-03-30T05:43:20.259Z,13.87
2019-03-30T05:45:51.641Z,17.47
2019-03-30T05:48:22.536Z,20.00
2019-03-30T05:50:53.687Z,19.97
2019-03-30T05:53:24.630Z,17.33
2019-03-30T05:55:55.673Z,16.17
2019-03-30T05:58:26.801Z,14.73
2019-03-30T06:00:57.729Z,15.00
2019-03-30T06:03:28.645Z,17.30
2019-03-30T06:05:59.679Z,15.17
2019-03-30T06:08:31.150Z,14.28
2019-03-30T06:11:02.078Z,14.10
2019-03-30T06:13:32.931Z,14.50
2019-03-30T06:16:03.903Z,14.03
2019-03-30T06:18:34.833Z,14.43
2019-03-30T06:21:05.839Z,14.43
2019-03-30T06:23:36.759Z,14.57
2019-03-30T06:26:07.686Z,13.67
2019-03-30T06:28:38.610Z,13.90
2019-03-30T06:31:09.552Z,14.83
2019-03-30T06:33:40.596Z,14.13
2019-03-30T06:36:11.538Z,15.37
2019-03-30T06:38:42.474Z,15.37
2019-03-30T06:41:13.424Z,14.73
2019-03-30T06:43:44.503Z,13.73
2019-03-30T06:46:15.429Z,14.60
2019-03-30T06:48:46.440Z,15.00
2019-03-30T06:51:17.343Z,13.30
2019-03-30T06:53:48.239Z,20.77
2019-03-30T06:56:19.164Z,13.37
2019-03-30T06:58:50.053Z,14.00
2019-03-30T07:01:21.264Z,13.10
2019-03-30T07:03:52.179Z,13.17
2019-03-30T07:06:23.803Z,12.97
2019-03-30T07:08:56.315Z,13.03
2019-03-30T07:11:30.456Z,11.50
2019-03-30T07:14:04.162Z,12.20
2019-03-30T07:16:37.242Z,12.30
2019-03-30T07:19:08.170Z,11.97
2019-03-30T07:21:39.092Z,12.03
2019-03-30T07:24:09.978Z,12.37
2019-03-30T07:26:40.881Z,11.60
2019-03-30T07:29:11.764Z,11.80
2019-03-30T07:31:42.678Z,11.83
2019-03-30T07:34:13.549Z,11.70
2019-03-30T07:36:44.492Z,11.23
2019-03-30T07:39:15.375Z,11.30
2019-03-30T07:41:46.295Z,11.10
2019-03-30T07:44:17.231Z,10.67
2019-03-30T07:46:48.147Z,10.93
2019-03-30T07:49:19.225Z,10.93
2019-03-30T07:51:50.146Z,11.07
2019-03-30T07:54:21.935Z,10.87
2019-03-30T07:57:04.154Z,11.33
2019-03-30T07:59:25.397Z,11.17
2019-03-30T08:01:56.365Z,11.77
2019-03-30T08:04:28.822Z,11.23
2019-03-30T08:06:59.888Z,11.57
2019-03-30T08:09:30.796Z,10.60
2019-03-30T08:12:01.754Z,11.00
2019-03-30T08:14:32.704Z,10.72
2019-03-30T08:17:03.832Z,10.97
2019-03-30T08:19:34.725Z,10.37
2019-03-30T08:22:05.626Z,11.17
2019-03-30T08:24:36.745Z,11.00
2019-03-30T08:27:07.703Z,11.60
2019-03-30T08:29:38.722Z,11.17
2019-03-30T08:32:09.812Z,10.77
2019-03-30T08:34:40.699Z,11.12
2019-03-30T08:37:16.148Z,11.00
2019-03-30T08:39:47.096Z,10.88
2019-03-30T08:42:18.663Z,11.30
2019-03-30T08:44:49.672Z,10.67
2019-03-30T08:47:20.623Z,11.20
2019-03-30T08:49:51.778Z,11.27
2019-03-30T08:52:22.692Z,10.83
2019-03-30T08:54:53.969Z,11.17
2019-03-30T08:57:25.035Z,11.13
2019-03-30T08:59:55.979Z,11.17
2019-03-30T09:02:26.901Z,11.27
2019-03-30T09:04:58.490Z,11.67
2019-03-30T09:07:29.605Z,10.73
2019-03-30T09:10:00.618Z,12.70
2019-03-30T09:12:32.884Z,11.70
2019-03-30T09:15:03.798Z,11.70
2019-03-30T09:17:37.346Z,11.50
2019-03-30T09:20:09.935Z,11.53
2019-03-30T09:22:40.883Z,11.90
2019-03-30T09:25:12.327Z,12.27
2019-03-30T09:27:43.278Z,11.83
2019-03-30T09:30:14.906Z,11.60
2019-03-30T09:32:45.840Z,11.53
2019-03-30T09:35:16.794Z,16.53
2019-03-30T09:37:50.396Z,12.37
2019-03-30T09:40:22.336Z,11.60
2019-03-30T09:42:53.269Z,12.23
2019-03-30T09:45:24.323Z,11.93
2019-03-30T09:47:55.281Z,10.77
2019-03-30T09:50:26.230Z,11.23
2019-03-30T09:52:58.324Z,12.67
2019-03-30T09:55:29.340Z,12.27
2019-03-30T09:58:00.356Z,11.87
2019-03-30T10:00:32.347Z,12.20
2019-03-30T10:03:05.909Z,12.63
2019-03-30T10:05:35.866Z,12.03
2019-03-30T10:08:06.845Z,12.47
2019-03-30T10:10:38.761Z,11.97
2019-03-30T10:13:10.702Z,12.33
2019-03-30T10:15:41.612Z,12.10
2019-03-30T10:18:12.531Z,12.00
2019-03-30T10:20:43.445Z,12.20
2019-03-30T10:23:14.387Z,12.40
2019-03-30T10:25:45.380Z,12.57
2019-03-30T10:28:16.329Z,12.50
2019-03-30T10:30:47.286Z,13.32
2019-03-30T10:33:18.231Z,12.73
2019-03-30T10:35:49.149Z,12.53
2019-03-30T10:38:20.051Z,13.00
2019-03-30T10:40:51.593Z,13.43
2019-03-30T10:43:22.592Z,12.90
2019-03-30T10:45:53.499Z,13.37
2019-03-30T10:48:24.419Z,13.50
2019-03-30T10:50:55.287Z,12.77
2019-03-30T10:53:26.202Z,13.50
2019-03-30T10:55:57.109Z,13.53
2019-03-30T10:58:28.175Z,11.97
2019-03-30T11:00:59.642Z,14.23
2019-03-30T11:03:31.523Z,14.67
2019-03-30T11:06:02.420Z,13.87
2019-03-30T11:08:33.432Z,14.23
2019-03-30T11:11:04.456Z,12.10
2019-03-30T11:13:35.363Z,13.13
2019-03-30T11:16:06.341Z,13.53
2019-03-30T11:18:37.444Z,13.68
2019-03-30T11:21:08.420Z,13.40
2019-03-30T11:23:39.474Z,13.40
2019-03-30T11:26:10.390Z,14.13
2019-03-30T11:28:42.264Z,13.13
2019-03-30T11:31:13.212Z,14.07
2019-03-30T11:33:44.135Z,12.85
2019-03-30T11:36:18.367Z,13.77
2019-03-30T11:38:47.869Z,12.53
2019-03-30T11:41:18.942Z,13.00
2019-03-30T11:43:50.040Z,12.87
2019-03-30T11:46:21.239Z,13.32
2019-03-30T11:48:53.426Z,13.58
2019-03-30T11:51:24.352Z,13.00
2019-03-30T11:53:55.335Z,12.30
2019-03-30T11:56:26.227Z,13.70
2019-03-30T11:58:58.567Z,11.38
2019-03-30T12:01:29.523Z,13.18
2019-03-30T12:04:00.428Z,11.53
2019-03-30T12:06:31.315Z,11.33
2019-03-30T12:09:02.240Z,11.70
2019-03-30T12:11:33.198Z,11.83
2019-03-30T12:14:04.177Z,12.00
2019-03-30T12:16:35.079Z,11.65
2019-03-30T12:19:06.162Z,11.63
2019-03-30T12:21:37.060Z,12.05
2019-03-30T12:24:07.994Z,11.73
2019-03-30T12:26:38.922Z,11.07
2019-03-30T12:29:09.815Z,10.58
2019-03-30T12:31:40.902Z,11.33
2019-03-30T12:34:13.159Z,11.95
2019-03-30T12:36:44.231Z,11.45
2019-03-30T12:39:15.658Z,10.90
2019-03-30T12:41:46.607Z,11.17
2019-03-30T12:44:17.526Z,7.67
2019-03-30T12:46:48.505Z,9.28
2019-03-30T12:49:21.060Z,8.75
2019-03-30T12:51:52.155Z,8.98
2019-03-30T12:54:23.538Z,7.78
2019-03-30T12:56:54.455Z,7.05
2019-03-30T12:59:25.391Z,5.20
2019-03-30T13:01:56.294Z,4.90
2019-03-30T13:04:27.714Z,4.20
2019-03-30T13:07:00.627Z,3.45
2019-03-30T13:09:34.921Z,5.42
2019-03-30T13:12:05.847Z,3.87
2019-03-30T13:14:37.797Z,3.47
2019-03-30T13:17:08.745Z,3.60
2019-03-30T13:19:39.785Z,4.70
2019-03-30T13:22:10.635Z,6.17
2019-03-30T13:24:41.575Z,5.03
2019-03-30T13:27:13.132Z,4.40
2019-03-30T13:29:44.105Z,5.43
2019-03-30T13:32:15.112Z,4.75
2019-03-30T13:34:46.022Z,5.40
2019-03-30T13:37:20.979Z,5.20
2019-03-30T13:39:51.887Z,5.50
2019-03-30T13:42:22.765Z,5.03
2019-03-30T13:44:53.677Z,5.17
2019-03-30T13:47:24.545Z,4.90
2019-03-30T13:49:55.542Z,5.72
2019-03-30T13:52:26.427Z,5.42
2019-03-30T13:54:57.439Z,5.65
2019-03-30T13:57:28.336Z,5.45
2019-03-30T13:59:59.258Z,6.15
2019-03-30T14:02:30.203Z,5.10
2019-03-30T14:05:01.176Z,4.90
2019-03-30T14:07:33.220Z,5.62
2019-03-30T14:10:04.251Z,5.47
2019-03-30T14:12:35.210Z,5.28
2019-03-30T14:15:09.359Z,5.62
2019-03-30T14:17:39.487Z,5.27
2019-03-30T14:20:11.071Z,5.28
2019-03-30T14:22:43.026Z,5.30
2019-03-30T14:25:14.428Z,5.47
2019-03-30T14:27:45.413Z,5.23
2019-03-30T14:30:17.060Z,5.58
2019-03-30T14:32:48.057Z,5.58
2019-03-30T14:35:18.948Z,5.33
2019-03-30T14:37:49.934Z,4.90
2019-03-30T14:40:20.845Z,5.45
2019-03-30T14:42:52.114Z,5.92
2019-03-30T14:45:23.022Z,5.30
2019-03-30T14:47:54.038Z,5.15
2019-03-30T14:50:35.829Z,5.85
2019-03-30T14:53:07.267Z,5.75
2019-03-30T14:55:39.737Z,5.42
2019-03-30T14:58:10.865Z,5.67
2019-03-30T15:00:53.052Z,6.17
2019-03-30T15:03:24.675Z,6.00
2019-03-30T15:05:56.804Z,6.03
2019-03-30T15:08:28.334Z,5.95
2019-03-30T15:11:00.135Z,5.42
2019-03-30T15:13:31.597Z,4.70
2019-03-30T15:16:03.099Z,4.60
2019-03-30T15:18:34.657Z,4.85
2019-03-30T15:21:08.470Z,5.28
2019-03-30T15:23:39.339Z,4.90
2019-03-30T15:26:10.811Z,4.87
2019-03-30T15:28:42.959Z,4.70
2019-03-30T15:31:14.585Z,4.50
2019-03-30T15:33:46.253Z,4.90
2019-03-30T15:36:17.217Z,4.72
2019-03-30T15:38:48.104Z,4.83
2019-03-30T15:41:19.448Z,5.20
2019-03-30T15:43:52.150Z,4.10
2019-03-30T15:46:23.232Z,4.35
2019-03-30T15:48:54.104Z,5.00
2019-03-30T15:51:25.073Z,5.05
2019-03-30T15:53:55.968Z,6.00
2019-03-30T15:56:26.869Z,5.50
2019-03-30T15:58:57.767Z,5.10
2019-03-30T16:01:28.675Z,5.40
2019-03-30T16:04:02.369Z,4.90
2019-03-30T16:06:32.298Z,5.25
2019-03-30T16:09:03.295Z,5.10
2019-03-30T16:11:34.472Z,4.60
2019-03-30T16:14:05.554Z,4.80
2019-03-30T16:16:36.484Z,6.28
2019-03-30T16:19:07.422Z,5.58
2019-03-30T16:21:38.335Z,5.92
2019-03-30T16:24:09.243Z,4.37
2019-03-30T16:26:42.371Z,4.75
2019-03-30T16:29:12.672Z,4.95
2019-03-30T16:31:43.587Z,4.60
2019-03-30T16:34:14.476Z,6.00
2019-03-30T16:36:45.444Z,6.30
2019-03-30T16:39:16.345Z,5.40
2019-03-30T16:41:47.357Z,5.53
2019-03-30T16:44:18.231Z,5.10
2019-03-30T16:46:49.131Z,4.92
2019-03-30T16:49:20.685Z,5.16
2019-03-30T16:51:51.596Z,4.80
2019-03-30T16:54:22.512Z,4.90
2019-03-30T16:56:53.474Z,4.67
2019-03-30T16:59:24.450Z,5.12
2019-03-30T17:01:55.354Z,4.65
2019-03-30T17:04:29.414Z,4.58
2019-03-30T17:06:58.833Z,5.00
2019-03-30T17:09:29.723Z,5.40
2019-03-30T17:12:00.624Z,5.83
2019-03-30T17:14:31.743Z,5.60
2019-03-30T17:17:02.647Z,6.40
2019-03-30T17:19:33.531Z,7.50
2019-03-30T17:22:04.431Z,7.57
2019-03-30T17:24:35.408Z,7.27
2019-03-30T17:27:06.338Z,6.87
2019-03-30T17:29:37.405Z,7.50
2019-03-30T17:32:08.327Z,6.90
2019-03-30T17:34:39.207Z,7.63
2019-03-30T17:37:14.295Z,7.20
2019-03-30T17:39:43.661Z,7.75
2019-03-30T17:42:14.558Z,7.27
2019-03-30T17:44:45.430Z,6.83
2019-03-30T17:47:16.362Z,7.10
2019-03-30T17:49:47.408Z,7.33
2019-03-30T17:52:18.322Z,6.70
2019-03-30T17:54:49.346Z,6.60
2019-03-30T17:57:20.328Z,6.77
2019-03-30T17:59:51.461Z,7.20
2019-03-30T18:02:23.262Z,6.93
2019-03-30T18:04:54.308Z,7.03
2019-03-30T18:07:25.231Z,7.20
2019-03-30T18:09:56.119Z,6.80
2019-03-30T18:12:27.076Z,6.10
2019-03-30T18:14:59.680Z,6.87
2019-03-30T18:17:30.598Z,7.80
2019-03-30T18:20:01.547Z,8.33
2019-03-30T18:22:32.539Z,8.23
2019-03-30T18:25:03.454Z,8.23
2019-03-30T18:27:34.830Z,8.93
2019-03-30T18:30:06.393Z,10.97
2019-03-30T18:32:37.490Z,69.60
2019-03-30T18:35:08.495Z,27.90
2019-03-30T18:37:40.320Z,17.50
2019-03-30T18:40:12.775Z,10.40
2019-03-30T18:42:43.750Z,11.87
2019-03-30T18:45:25.877Z,8.87
2019-03-30T18:48:01.049Z,8.60
2019-03-30T18:50:32.106Z,8.90
2019-03-30T18:53:03.057Z,8.33
2019-03-30T18:55:33.955Z,9.70
2019-03-30T18:58:04.944Z,9.47
2019-03-30T19:00:35.933Z,10.23
2019-03-30T19:03:07.058Z,11.10
2019-03-30T19:05:40.452Z,11.50
2019-03-30T19:08:11.944Z,12.90
2019-03-30T19:10:43.007Z,12.80
2019-03-30T19:13:13.959Z,12.90
2019-03-30T19:15:44.962Z,7.70
2019-03-30T19:18:16.225Z,7.37
2019-03-30T19:20:47.110Z,6.80
2019-03-30T19:23:18.058Z,7.13
2019-03-30T19:25:50.099Z,9.57
2019-03-30T19:28:20.989Z,12.90
2019-03-30T19:30:51.960Z,26.90
2019-03-30T19:33:22.942Z,36.53
2019-03-30T19:35:53.868Z,21.90
2019-03-30T19:38:25.671Z,22.07
2019-03-30T19:40:56.582Z,26.03
2019-03-30T19:43:27.492Z,24.00
2019-03-30T19:45:58.535Z,44.43
2019-03-30T19:48:29.460Z,27.17
2019-03-30T19:51:00.454Z,24.03
2019-03-30T19:53:31.474Z,25.30
2019-03-30T19:56:02.406Z,37.03
2019-03-30T19:58:33.814Z,37.23
2019-03-30T20:01:06.239Z,27.13
2019-03-30T20:03:37.302Z,26.73
2019-03-30T20:06:08.261Z,24.43
2019-03-30T20:08:40.403Z,24.47
2019-03-30T20:11:11.404Z,25.97
2019-03-30T20:13:42.327Z,28.30
2019-03-30T20:16:13.440Z,32.30
2019-03-30T20:18:44.497Z,33.80
2019-03-30T20:21:16.642Z,42.50
2019-03-30T20:23:48.424Z,60.33
2019-03-30T20:26:19.626Z,42.80
2019-03-30T20:28:51.051Z,25.93
2019-03-30T20:31:22.931Z,24.37
2019-03-30T20:33:53.992Z,16.53
2019-03-30T20:36:24.919Z,13.87
2019-03-30T20:38:56.222Z,13.93
2019-03-30T20:41:27.311Z,17.33
2019-03-30T20:43:59.949Z,22.00
2019-03-30T20:46:31.719Z,21.27
2019-03-30T20:49:02.755Z,18.70
2019-03-30T20:51:33.813Z,12.83
2019-03-30T20:54:04.882Z,9.43
2019-03-30T20:56:35.957Z,15.27
2019-03-30T20:59:06.902Z,14.10
2019-03-30T21:01:38.519Z,13.00
2019-03-30T21:04:11.386Z,12.90
2019-03-30T21:06:42.292Z,13.40
2019-03-30T21:09:13.480Z,13.67
2019-03-30T21:11:44.437Z,13.80
2019-03-30T21:14:15.506Z,13.70
2019-03-30T21:16:46.993Z,12.47
2019-03-30T21:19:17.981Z,12.63
2019-03-30T21:21:49.165Z,13.07
2019-03-30T21:24:20.197Z,13.33
2019-03-30T21:26:51.093Z,12.00
2019-03-30T21:29:22.793Z,12.50
2019-03-30T21:31:53.667Z,9.20
2019-03-30T21:34:24.756Z,11.00
2019-03-30T21:36:55.672Z,9.90
2019-03-30T21:39:26.594Z,11.10
2019-03-30T21:41:57.716Z,9.30
2019-03-30T21:44:28.610Z,9.30
2019-03-30T21:46:59.487Z,8.77
2019-03-30T21:49:31.142Z,10.53
2019-03-30T21:52:02.227Z,11.70
2019-03-30T21:54:33.240Z,11.80
2019-03-30T21:57:04.126Z,11.30
2019-03-30T21:59:35.143Z,11.40
2019-03-30T22:02:06.026Z,11.43
2019-03-30T22:04:36.947Z,10.80
2019-03-30T22:07:08.528Z,10.17
2019-03-30T22:09:39.701Z,10.47
2019-03-30T22:12:10.642Z,10.40
2019-03-30T22:14:41.624Z,10.13
2019-03-30T22:17:12.599Z,9.70
2019-03-30T22:19:43.579Z,9.50
2019-03-30T22:22:14.523Z,8.60
2019-03-30T22:24:45.722Z,9.27
2019-03-30T22:27:16.730Z,8.53
2019-03-30T22:29:47.730Z,11.50
2019-03-30T22:32:18.666Z,11.83
2019-03-30T22:34:49.601Z,11.73
2019-03-30T22:37:20.539Z,11.60
2019-03-30T22:39:51.539Z,12.33
2019-03-30T22:42:22.527Z,12.80
2019-03-30T22:44:53.563Z,12.30
2019-03-30T22:47:24.531Z,12.63
2019-03-30T22:49:56.013Z,13.77
2019-03-30T22:52:26.967Z,15.10
2019-03-30T22:54:57.931Z,14.67
2019-03-30T22:57:28.887Z,14.57
2019-03-30T23:00:38.993Z,13.77
2019-03-30T23:03:11.404Z,14.33
2019-03-30T23:05:42.404Z,14.20
2019-03-30T23:08:13.474Z,13.77
2019-03-30T23:10:44.468Z,14.20
2019-03-30T23:13:15.621Z,14.47
2019-03-30T23:15:46.591Z,14.90
2019-03-30T23:18:17.735Z,12.13
2019-03-30T23:20:48.823Z,11.95
2019-03-30T23:23:19.803Z,12.63
2019-03-30T23:25:51.133Z,13.27
2019-03-30T23:28:22.116Z,12.87
2019-03-30T23:30:54.746Z,12.97
2019-03-30T23:33:27.425Z,12.57
2019-03-30T23:36:00.247Z,12.63
2019-03-30T23:38:33.519Z,11.73
2019-03-30T23:41:06.166Z,11.60
2019-03-30T23:43:38.733Z,11.95
2019-03-30T23:46:12.669Z,12.20
2019-03-30T23:48:45.430Z,11.47
2019-03-30T23:51:18.057Z,11.00
2019-03-30T23:53:50.894Z,10.80
2019-03-30T23:56:23.786Z,11.33
2019-03-30T23:58:54.962Z,12.80
